sensor_id;sensor_type;location;lat;lon;timestamp;P1;durP1;ratioP1;P2;durP2;ratioP2
16314;SDS011;8266;52.150;4.768;2022-11-20T12:46:35;30.10;;;23.95;;
16314;SDS011;8266;52.150;4.768;2022-11-20T12:49:13;28.42;;;21.55;;
16314;SDS011;8266;52.150;4.768;2022-11-20T12:52:01;29.27;;;20.63;;
16314;SDS011;8266;52.150;4.768;2022-11-20T12:54:41;27.73;;;20.63;;
16314;SDS011;8266;52.150;4.768;2022-11-20T12:57:21;26.88;;;19.90;;
16314;SDS011;8266;52.150;4.768;2022-11-20T13:00:02;25.58;;;20.80;;
16314;SDS011;8266;52.150;4.768;2022-11-20T13:02:40;28.75;;;20.95;;
16314;SDS011;8266;52.150;4.768;2022-11-20T13:05:21;24.80;;;19.98;;
16314;SDS011;8266;52.150;4.768;2022-11-20T13:07:53;27.45;;;20.42;;
16314;SDS011;8266;52.150;4.768;2022-11-20T13:10:22;26.05;;;19.20;;
16314;SDS011;8266;52.150;4.768;2022-11-20T13:12:56;25.52;;;19.27;;
16314;SDS011;8266;52.150;4.768;2022-11-20T13:15:33;27.27;;;19.63;;
16314;SDS011;8266;52.150;4.768;2022-11-20T13:18:12;25.13;;;18.95;;
16314;SDS011;8266;52.150;4.768;2022-11-20T13:20:44;28.80;;;20.58;;
16314;SDS011;8266;52.150;4.768;2022-11-20T13:23:22;28.23;;;18.95;;
16314;SDS011;8266;52.150;4.768;2022-11-20T13:26:02;27.52;;;19.67;;
16314;SDS011;8266;52.150;4.768;2022-11-20T13:28:31;26.27;;;19.65;;
16314;SDS011;8266;52.150;4.768;2022-11-20T13:30:58;28.75;;;19.85;;
16314;SDS011;8266;52.150;4.768;2022-11-20T13:33:28;26.08;;;18.35;;
16314;SDS011;8266;52.150;4.768;2022-11-20T13:35:58;25.42;;;19.02;;
16314;SDS011;8266;52.150;4.768;2022-11-20T13:38:26;27.08;;;19.95;;
16314;SDS011;8266;52.150;4.768;2022-11-20T13:40:55;27.63;;;19.73;;
16314;SDS011;8266;52.150;4.768;2022-11-20T13:43:26;27.38;;;19.02;;
16314;SDS011;8266;52.150;4.768;2022-11-20T13:46:00;29.15;;;22.27;;
16314;SDS011;8266;52.150;4.768;2022-11-20T13:48:30;36.20;;;25.80;;
16314;SDS011;8266;52.150;4.768;2022-11-20T13:51:07;39.10;;;29.55;;
16314;SDS011;8266;52.150;4.768;2022-11-20T13:53:57;34.40;;;24.85;;
16314;SDS011;8266;52.150;4.768;2022-11-20T13:56:45;31.95;;;22.40;;
16314;SDS011;8266;52.150;4.768;2022-11-20T13:59:24;35.70;;;25.20;;
16314;SDS011;8266;52.150;4.768;2022-11-20T14:02:02;36.03;;;26.70;;
16314;SDS011;8266;52.150;4.768;2022-11-20T14:04:41;33.70;;;25.30;;
16314;SDS011;8266;52.150;4.768;2022-11-20T14:07:10;35.67;;;24.80;;
16314;SDS011;8266;52.150;4.768;2022-11-20T14:09:38;36.03;;;26.05;;
16314;SDS011;8266;52.150;4.768;2022-11-20T14:12:14;30.92;;;23.45;;
16314;SDS011;8266;52.150;4.768;2022-11-20T14:14:47;37.67;;;26.80;;
16314;SDS011;8266;52.150;4.768;2022-11-20T14:17:17;37.10;;;25.73;;
16314;SDS011;8266;52.150;4.768;2022-11-20T14:19:46;33.25;;;24.95;;
16314;SDS011;8266;52.150;4.768;2022-11-20T14:22:18;36.55;;;26.08;;
16314;SDS011;8266;52.150;4.768;2022-11-20T14:24:47;33.20;;;24.63;;
16314;SDS011;8266;52.150;4.768;2022-11-20T14:27:15;35.45;;;26.17;;
16314;SDS011;8266;52.150;4.768;2022-11-20T14:29:44;33.25;;;24.30;;
16314;SDS011;8266;52.150;4.768;2022-11-20T14:32:14;32.05;;;23.88;;
16314;SDS011;8266;52.150;4.768;2022-11-20T14:34:44;33.03;;;24.17;;
16314;SDS011;8266;52.150;4.768;2022-11-20T14:37:17;32.30;;;23.38;;
16314;SDS011;8266;52.150;4.768;2022-11-20T14:39:48;30.95;;;23.92;;
16314;SDS011;8266;52.150;4.768;2022-11-20T14:42:18;31.65;;;23.50;;
16314;SDS011;8266;52.150;4.768;2022-11-20T14:44:47;29.67;;;21.10;;
16314;SDS011;8266;52.150;4.768;2022-11-20T14:47:17;32.35;;;22.42;;
16314;SDS011;8266;52.150;4.768;2022-11-20T14:49:49;30.70;;;22.77;;
16314;SDS011;8266;52.150;4.768;2022-11-20T14:52:18;30.15;;;22.30;;
16314;SDS011;8266;52.150;4.768;2022-11-20T14:54:47;30.70;;;23.10;;
16314;SDS011;8266;52.150;4.768;2022-11-20T14:57:24;31.70;;;24.15;;
16314;SDS011;8266;52.150;4.768;2022-11-20T15:06:48;30.15;;;22.17;;
16314;SDS011;8266;52.150;4.768;2022-11-20T15:09:16;28.52;;;22.77;;
16314;SDS011;8266;52.150;4.768;2022-11-20T15:11:51;30.58;;;24.45;;
16314;SDS011;8266;52.150;4.768;2022-11-20T15:14:20;28.40;;;22.15;;
16314;SDS011;8266;52.150;4.768;2022-11-20T15:16:47;29.65;;;23.20;;
16314;SDS011;8266;52.150;4.768;2022-11-20T15:19:16;28.10;;;21.60;;
16314;SDS011;8266;52.150;4.768;2022-11-20T15:21:46;28.77;;;22.30;;
16314;SDS011;8266;52.150;4.768;2022-11-20T15:24:13;29.40;;;22.33;;
16314;SDS011;8266;52.150;4.768;2022-11-20T15:26:41;27.73;;;20.85;;
16314;SDS011;8266;52.150;4.768;2022-11-20T15:29:09;28.70;;;21.38;;
16314;SDS011;8266;52.150;4.768;2022-11-20T15:31:37;28.30;;;21.33;;
16314;SDS011;8266;52.150;4.768;2022-11-20T15:34:08;26.80;;;21.00;;
16314;SDS011;8266;52.150;4.768;2022-11-20T15:36:37;33.75;;;23.15;;
16314;SDS011;8266;52.150;4.768;2022-11-20T15:39:06;28.00;;;21.00;;
16314;SDS011;8266;52.150;4.768;2022-11-20T15:41:34;27.95;;;21.08;;
16314;SDS011;8266;52.150;4.768;2022-11-20T15:44:02;31.23;;;21.85;;
16314;SDS011;8266;52.150;4.768;2022-11-20T15:46:30;29.13;;;22.08;;
16314;SDS011;8266;52.150;4.768;2022-11-20T15:49:03;32.45;;;23.77;;
16314;SDS011;8266;52.150;4.768;2022-11-20T15:51:35;30.95;;;24.25;;
16314;SDS011;8266;52.150;4.768;2022-11-20T15:54:09;31.23;;;23.77;;
16314;SDS011;8266;52.150;4.768;2022-11-20T15:56:38;29.73;;;21.63;;
16314;SDS011;8266;52.150;4.768;2022-11-20T15:59:05;28.10;;;20.65;;
16314;SDS011;8266;52.150;4.768;2022-11-20T16:01:32;26.73;;;19.83;;
16314;SDS011;8266;52.150;4.768;2022-11-20T16:03:59;25.05;;;19.80;;
16314;SDS011;8266;52.150;4.768;2022-11-20T16:06:26;24.65;;;20.20;;
16314;SDS011;8266;52.150;4.768;2022-11-20T16:08:53;24.77;;;20.08;;
16314;SDS011;8266;52.150;4.768;2022-11-20T16:11:21;24.95;;;19.65;;
16314;SDS011;8266;52.150;4.768;2022-11-20T16:13:48;27.42;;;20.20;;
16314;SDS011;8266;52.150;4.768;2022-11-20T16:16:34;22.35;;;18.65;;
16314;SDS011;8266;52.150;4.768;2022-11-20T16:19:03;25.17;;;19.10;;
16314;SDS011;8266;52.150;4.768;2022-11-20T16:21:30;22.75;;;18.38;;
16314;SDS011;8266;52.150;4.768;2022-11-20T16:23:57;23.30;;;17.95;;
16314;SDS011;8266;52.150;4.768;2022-11-20T16:26:26;21.88;;;17.75;;
16314;SDS011;8266;52.150;4.768;2022-11-20T16:28:54;21.30;;;16.67;;
16314;SDS011;8266;52.150;4.768;2022-11-20T16:31:22;20.90;;;17.77;;
16314;SDS011;8266;52.150;4.768;2022-11-20T16:33:49;21.77;;;17.42;;
16314;SDS011;8266;52.150;4.768;2022-11-20T16:36:17;20.95;;;17.52;;
16314;SDS011;8266;52.150;4.768;2022-11-20T16:38:45;18.25;;;15.88;;
16314;SDS011;8266;52.150;4.768;2022-11-20T16:41:12;18.77;;;16.45;;
16314;SDS011;8266;52.150;4.768;2022-11-20T16:43:50;18.92;;;16.65;;
16314;SDS011;8266;52.150;4.768;2022-11-20T16:46:19;18.10;;;15.27;;
16314;SDS011;8266;52.150;4.768;2022-11-20T16:48:51;18.70;;;15.73;;
16314;SDS011;8266;52.150;4.768;2022-11-20T16:51:19;21.17;;;16.45;;
16314;SDS011;8266;52.150;4.768;2022-11-20T16:53:46;17.17;;;14.88;;
16314;SDS011;8266;52.150;4.768;2022-11-20T16:56:15;16.73;;;14.35;;
16314;SDS011;8266;52.150;4.768;2022-11-20T16:58:43;18.90;;;15.30;;
16314;SDS011;8266;52.150;4.768;2022-11-20T17:01:13;17.73;;;14.95;;
16314;SDS011;8266;52.150;4.768;2022-11-20T17:03:41;19.10;;;14.25;;
16314;SDS011;8266;52.150;4.768;2022-11-20T17:06:10;16.50;;;14.25;;
16314;SDS011;8266;52.150;4.768;2022-11-20T17:08:38;17.55;;;15.15;;
16314;SDS011;8266;52.150;4.768;2022-11-20T17:11:05;16.27;;;14.25;;
16314;SDS011;8266;52.150;4.768;2022-11-20T17:13:33;15.40;;;13.80;;
16314;SDS011;8266;52.150;4.768;2022-11-20T17:16:00;16.42;;;14.43;;
16314;SDS011;8266;52.150;4.768;2022-11-20T17:18:29;16.88;;;14.43;;
16314;SDS011;8266;52.150;4.768;2022-11-20T17:20:57;17.23;;;14.57;;
16314;SDS011;8266;52.150;4.768;2022-11-20T17:23:28;15.95;;;13.73;;
16314;SDS011;8266;52.150;4.768;2022-11-20T17:25:59;17.50;;;13.68;;
16314;SDS011;8266;52.150;4.768;2022-11-20T17:28:28;15.27;;;13.52;;
16314;SDS011;8266;52.150;4.768;2022-11-20T17:30:59;18.65;;;15.40;;
16314;SDS011;8266;52.150;4.768;2022-11-20T17:33:26;15.88;;;13.57;;
16314;SDS011;8266;52.150;4.768;2022-11-20T17:35:55;15.88;;;13.98;;
16314;SDS011;8266;52.150;4.768;2022-11-20T17:38:22;17.40;;;14.60;;
16314;SDS011;8266;52.150;4.768;2022-11-20T17:40:49;18.67;;;15.52;;
16314;SDS011;8266;52.150;4.768;2022-11-20T17:43:16;22.20;;;17.65;;
16314;SDS011;8266;52.150;4.768;2022-11-20T17:45:43;19.65;;;16.83;;
16314;SDS011;8266;52.150;4.768;2022-11-20T17:48:11;21.90;;;18.15;;
16314;SDS011;8266;52.150;4.768;2022-11-20T17:50:38;18.90;;;16.58;;
16314;SDS011;8266;52.150;4.768;2022-11-20T17:53:06;16.73;;;14.55;;
16314;SDS011;8266;52.150;4.768;2022-11-20T17:55:33;18.75;;;15.93;;
16314;SDS011;8266;52.150;4.768;2022-11-20T17:58:14;18.83;;;15.95;;
16314;SDS011;8266;52.150;4.768;2022-11-20T18:00:41;19.50;;;16.13;;
16314;SDS011;8266;52.150;4.768;2022-11-20T18:03:08;19.30;;;15.77;;
16314;SDS011;8266;52.150;4.768;2022-11-20T18:05:35;19.67;;;15.00;;
16314;SDS011;8266;52.150;4.768;2022-11-20T18:08:07;18.05;;;15.20;;
16314;SDS011;8266;52.150;4.768;2022-11-20T18:10:37;18.30;;;15.68;;
16314;SDS011;8266;52.150;4.768;2022-11-20T18:13:04;17.38;;;15.50;;
16314;SDS011;8266;52.150;4.768;2022-11-20T18:15:31;19.13;;;14.68;;
16314;SDS011;8266;52.150;4.768;2022-11-20T18:18:00;16.13;;;13.68;;
16314;SDS011;8266;52.150;4.768;2022-11-20T18:20:27;16.05;;;14.00;;
16314;SDS011;8266;52.150;4.768;2022-11-20T18:22:55;17.52;;;15.27;;
16314;SDS011;8266;52.150;4.768;2022-11-20T18:25:26;19.38;;;15.32;;
16314;SDS011;8266;52.150;4.768;2022-11-20T18:27:54;16.02;;;14.32;;
16314;SDS011;8266;52.150;4.768;2022-11-20T18:30:23;19.15;;;16.50;;
16314;SDS011;8266;52.150;4.768;2022-11-20T18:32:50;18.17;;;16.27;;
16314;SDS011;8266;52.150;4.768;2022-11-20T18:35:19;18.85;;;16.85;;
16314;SDS011;8266;52.150;4.768;2022-11-20T18:37:46;26.83;;;24.30;;
16314;SDS011;8266;52.150;4.768;2022-11-20T18:40:14;22.45;;;20.17;;
16314;SDS011;8266;52.150;4.768;2022-11-20T18:42:42;18.25;;;16.30;;
16314;SDS011;8266;52.150;4.768;2022-11-20T18:45:26;18.08;;;14.45;;
16314;SDS011;8266;52.150;4.768;2022-11-20T18:47:55;17.60;;;15.77;;
16314;SDS011;8266;52.150;4.768;2022-11-20T18:50:22;16.63;;;14.75;;
16314;SDS011;8266;52.150;4.768;2022-11-20T18:52:52;15.27;;;13.73;;
16314;SDS011;8266;52.150;4.768;2022-11-20T18:55:20;15.43;;;13.77;;
16314;SDS011;8266;52.150;4.768;2022-11-20T18:57:51;15.57;;;13.95;;
16314;SDS011;8266;52.150;4.768;2022-11-20T19:00:19;16.15;;;13.57;;
16314;SDS011;8266;52.150;4.768;2022-11-20T19:02:46;14.85;;;13.25;;
16314;SDS011;8266;52.150;4.768;2022-11-20T19:05:17;17.00;;;13.82;;
16314;SDS011;8266;52.150;4.768;2022-11-20T19:07:49;15.13;;;13.50;;
16314;SDS011;8266;52.150;4.768;2022-11-20T19:10:17;16.33;;;14.55;;
16314;SDS011;8266;52.150;4.768;2022-11-20T19:12:48;15.82;;;13.93;;
16314;SDS011;8266;52.150;4.768;2022-11-20T19:15:16;16.25;;;13.77;;
16314;SDS011;8266;52.150;4.768;2022-11-20T19:17:44;14.65;;;13.07;;
16314;SDS011;8266;52.150;4.768;2022-11-20T19:20:16;15.93;;;13.93;;
16314;SDS011;8266;52.150;4.768;2022-11-20T19:22:43;15.35;;;13.75;;
16314;SDS011;8266;52.150;4.768;2022-11-20T19:25:15;13.80;;;12.40;;
16314;SDS011;8266;52.150;4.768;2022-11-20T19:27:43;16.35;;;13.38;;
16314;SDS011;8266;52.150;4.768;2022-11-20T19:30:10;16.17;;;14.32;;
16314;SDS011;8266;52.150;4.768;2022-11-20T19:32:39;23.00;;;18.88;;
16314;SDS011;8266;52.150;4.768;2022-11-20T19:35:07;18.83;;;16.75;;
16314;SDS011;8266;52.150;4.768;2022-11-20T19:37:38;16.90;;;15.10;;
16314;SDS011;8266;52.150;4.768;2022-11-20T19:40:06;16.92;;;15.05;;
16314;SDS011;8266;52.150;4.768;2022-11-20T19:42:34;16.63;;;14.82;;
16314;SDS011;8266;52.150;4.768;2022-11-20T19:45:01;16.25;;;14.52;;
16314;SDS011;8266;52.150;4.768;2022-11-20T19:47:29;15.82;;;14.13;;
16314;SDS011;8266;52.150;4.768;2022-11-20T19:49:59;17.00;;;14.95;;
16314;SDS011;8266;52.150;4.768;2022-11-20T19:52:26;17.20;;;15.43;;
16314;SDS011;8266;52.150;4.768;2022-11-20T19:54:53;17.90;;;16.05;;
16314;SDS011;8266;52.150;4.768;2022-11-20T19:57:20;17.08;;;15.13;;
16314;SDS011;8266;52.150;4.768;2022-11-20T19:59:47;16.75;;;14.95;;
16314;SDS011;8266;52.150;4.768;2022-11-20T20:02:16;16.25;;;14.55;;
16314;SDS011;8266;52.150;4.768;2022-11-20T20:04:43;16.35;;;14.38;;
16314;SDS011;8266;52.150;4.768;2022-11-20T20:07:12;17.05;;;14.43;;
16314;SDS011;8266;52.150;4.768;2022-11-20T20:09:43;17.00;;;15.20;;
16314;SDS011;8266;52.150;4.768;2022-11-20T20:12:10;16.08;;;14.38;;
16314;SDS011;8266;52.150;4.768;2022-11-20T20:14:41;15.88;;;14.10;;
16314;SDS011;8266;52.150;4.768;2022-11-20T20:17:10;15.75;;;14.05;;
16314;SDS011;8266;52.150;4.768;2022-11-20T20:19:37;15.65;;;14.05;;
16314;SDS011;8266;52.150;4.768;2022-11-20T20:22:04;17.10;;;15.30;;
16314;SDS011;8266;52.150;4.768;2022-11-20T20:24:32;17.77;;;15.25;;
16314;SDS011;8266;52.150;4.768;2022-11-20T20:27:01;16.63;;;14.95;;
16314;SDS011;8266;52.150;4.768;2022-11-20T20:29:30;17.70;;;15.57;;
16314;SDS011;8266;52.150;4.768;2022-11-20T20:31:59;17.50;;;15.70;;
16314;SDS011;8266;52.150;4.768;2022-11-20T20:34:30;17.00;;;14.63;;
16314;SDS011;8266;52.150;4.768;2022-11-20T20:36:57;16.42;;;14.73;;
16314;SDS011;8266;52.150;4.768;2022-11-20T20:39:25;17.73;;;15.88;;
16314;SDS011;8266;52.150;4.768;2022-11-20T20:41:54;16.83;;;15.05;;
16314;SDS011;8266;52.150;4.768;2022-11-20T20:44:21;17.08;;;15.38;;
16314;SDS011;8266;52.150;4.768;2022-11-20T20:47:07;16.05;;;14.35;;
16314;SDS011;8266;52.150;4.768;2022-11-20T20:49:38;16.70;;;14.35;;
16314;SDS011;8266;52.150;4.768;2022-11-20T20:52:09;16.70;;;14.75;;
16314;SDS011;8266;52.150;4.768;2022-11-20T20:54:36;17.27;;;15.32;;
16314;SDS011;8266;52.150;4.768;2022-11-20T20:57:16;15.63;;;14.00;;
16314;SDS011;8266;52.150;4.768;2022-11-20T20:59:52;15.32;;;13.75;;
16314;SDS011;8266;52.150;4.768;2022-11-20T21:02:20;18.52;;;16.35;;
16314;SDS011;8266;52.150;4.768;2022-11-20T21:04:50;17.15;;;15.00;;
16314;SDS011;8266;52.150;4.768;2022-11-20T21:07:18;18.95;;;16.20;;
16314;SDS011;8266;52.150;4.768;2022-11-20T21:09:45;17.48;;;15.68;;
16314;SDS011;8266;52.150;4.768;2022-11-20T21:12:15;18.10;;;16.20;;
16314;SDS011;8266;52.150;4.768;2022-11-20T21:14:42;19.45;;;17.40;;
16314;SDS011;8266;52.150;4.768;2022-11-20T21:17:12;17.63;;;15.77;;
16314;SDS011;8266;52.150;4.768;2022-11-20T21:19:39;19.08;;;17.08;;
16314;SDS011;8266;52.150;4.768;2022-11-20T21:22:06;19.08;;;17.08;;
16314;SDS011;8266;52.150;4.768;2022-11-20T21:24:32;18.75;;;16.77;;
16314;SDS011;8266;52.150;4.768;2022-11-20T21:27:01;19.42;;;17.48;;
16314;SDS011;8266;52.150;4.768;2022-11-20T21:29:31;18.30;;;16.40;;
16314;SDS011;8266;52.150;4.768;2022-11-20T21:31:58;21.10;;;17.33;;
16314;SDS011;8266;52.150;4.768;2022-11-20T21:34:25;19.83;;;17.58;;
16314;SDS011;8266;52.150;4.768;2022-11-20T21:36:53;19.40;;;17.27;;
16314;SDS011;8266;52.150;4.768;2022-11-20T21:39:19;19.52;;;17.00;;
16314;SDS011;8266;52.150;4.768;2022-11-20T21:41:47;21.27;;;16.70;;
16314;SDS011;8266;52.150;4.768;2022-11-20T21:44:14;19.40;;;17.30;;
16314;SDS011;8266;52.150;4.768;2022-11-20T21:46:43;22.33;;;18.48;;
16314;SDS011;8266;52.150;4.768;2022-11-20T21:49:10;19.75;;;17.63;;
16314;SDS011;8266;52.150;4.768;2022-11-20T21:51:38;20.60;;;18.50;;
16314;SDS011;8266;52.150;4.768;2022-11-20T21:54:05;20.08;;;17.52;;
16314;SDS011;8266;52.150;4.768;2022-11-20T21:56:34;21.35;;;18.95;;
16314;SDS011;8266;52.150;4.768;2022-11-20T21:59:01;21.17;;;18.92;;
16314;SDS011;8266;52.150;4.768;2022-11-20T22:01:29;23.05;;;19.58;;
16314;SDS011;8266;52.150;4.768;2022-11-20T22:03:58;20.52;;;18.20;;
16314;SDS011;8266;52.150;4.768;2022-11-20T22:06:28;20.65;;;18.48;;
16314;SDS011;8266;52.150;4.768;2022-11-20T22:08:57;20.70;;;18.48;;
16314;SDS011;8266;52.150;4.768;2022-11-20T22:11:24;21.30;;;19.08;;
16314;SDS011;8266;52.150;4.768;2022-11-20T22:13:51;19.55;;;17.45;;
16314;SDS011;8266;52.150;4.768;2022-11-20T22:16:36;19.58;;;17.23;;
16314;SDS011;8266;52.150;4.768;2022-11-20T22:19:05;20.90;;;18.00;;
16314;SDS011;8266;52.150;4.768;2022-11-20T22:21:33;20.58;;;18.35;;
16314;SDS011;8266;52.150;4.768;2022-11-20T22:24:00;21.63;;;18.80;;
16314;SDS011;8266;52.150;4.768;2022-11-20T22:26:28;19.77;;;17.67;;
16314;SDS011;8266;52.150;4.768;2022-11-20T22:28:56;20.13;;;16.88;;
16314;SDS011;8266;52.150;4.768;2022-11-20T22:31:25;21.20;;;18.63;;
16314;SDS011;8266;52.150;4.768;2022-11-20T22:33:53;21.98;;;19.35;;
16314;SDS011;8266;52.150;4.768;2022-11-20T22:36:22;23.95;;;19.80;;
16314;SDS011;8266;52.150;4.768;2022-11-20T22:38:50;21.92;;;19.50;;
16314;SDS011;8266;52.150;4.768;2022-11-20T22:41:18;20.92;;;18.73;;
16314;SDS011;8266;52.150;4.768;2022-11-20T22:43:46;21.45;;;19.13;;
16314;SDS011;8266;52.150;4.768;2022-11-20T22:46:14;21.60;;;18.85;;
16314;SDS011;8266;52.150;4.768;2022-11-20T22:48:42;21.45;;;18.02;;
16314;SDS011;8266;52.150;4.768;2022-11-20T22:51:15;21.02;;;18.90;;
16314;SDS011;8266;52.150;4.768;2022-11-20T22:53:45;22.20;;;19.83;;
16314;SDS011;8266;52.150;4.768;2022-11-20T22:56:13;22.20;;;19.27;;
16314;SDS011;8266;52.150;4.768;2022-11-20T22:58:41;21.92;;;19.15;;
16314;SDS011;8266;52.150;4.768;2022-11-20T23:01:10;22.52;;;20.15;;
16314;SDS011;8266;52.150;4.768;2022-11-20T23:03:38;20.90;;;18.70;;
16314;SDS011;8266;52.150;4.768;2022-11-20T23:06:07;21.02;;;18.58;;
16314;SDS011;8266;52.150;4.768;2022-11-20T23:08:35;20.02;;;17.88;;
16314;SDS011;8266;52.150;4.768;2022-11-20T23:11:05;21.73;;;19.33;;
16314;SDS011;8266;52.150;4.768;2022-11-20T23:13:33;21.80;;;19.17;;
16314;SDS011;8266;52.150;4.768;2022-11-20T23:16:01;22.52;;;20.20;;
16314;SDS011;8266;52.150;4.768;2022-11-20T23:18:30;23.23;;;20.70;;
16314;SDS011;8266;52.150;4.768;2022-11-20T23:21:02;22.63;;;19.67;;
16314;SDS011;8266;52.150;4.768;2022-11-20T23:23:29;24.83;;;21.08;;
16314;SDS011;8266;52.150;4.768;2022-11-20T23:25:58;24.75;;;20.85;;
16314;SDS011;8266;52.150;4.768;2022-11-20T23:28:27;21.88;;;19.55;;
16314;SDS011;8266;52.150;4.768;2022-11-20T23:30:54;24.42;;;20.13;;
16314;SDS011;8266;52.150;4.768;2022-11-20T23:33:21;25.33;;;21.48;;
16314;SDS011;8266;52.150;4.768;2022-11-20T23:35:48;23.77;;;20.73;;
16314;SDS011;8266;52.150;4.768;2022-11-20T23:38:15;22.10;;;19.10;;
16314;SDS011;8266;52.150;4.768;2022-11-20T23:40:45;21.42;;;19.13;;
16314;SDS011;8266;52.150;4.768;2022-11-20T23:43:13;22.05;;;19.45;;
16314;SDS011;8266;52.150;4.768;2022-11-20T23:45:42;24.20;;;19.52;;
16314;SDS011;8266;52.150;4.768;2022-11-20T23:48:09;23.67;;;20.35;;
16314;SDS011;8266;52.150;4.768;2022-11-20T23:50:36;22.90;;;20.40;;
16314;SDS011;8266;52.150;4.768;2022-11-20T23:53:04;26.48;;;20.30;;
16314;SDS011;8266;52.150;4.768;2022-11-20T23:55:31;25.40;;;21.60;;
16314;SDS011;8266;52.150;4.768;2022-11-20T23:57:58;24.05;;;21.25;;
